Time;durP1;ratioP1;P1;durP2;ratioP2;P2;SDS_P1;SDS_P2;PMS_P1;PMS_P2;Temp;Humidity;BMP_temperature;BMP_pressure;BME280_temperature;BME280_humidity;BME280_pressure;Samples;Min_cycle;Max_cycle;Signal;HPM_P1;HPM_P2
2021/07/03 00:02:37;;;;;;;7.00;4.32;;;;;;;9.25;80.68;91013.13;4995747;28;20080;-86
2021/07/03 00:05:13;;;;;;;8.80;5.15;;;;;;;9.27;80.77;91010.97;4994498;28;20033;-87
2021/07/03 00:07:52;;;;;;;8.55;5.53;;;;;;;9.25;81.01;91007.94;5013766;28;20026;-86
2021/07/03 00:10:27;;;;;;;11.15;5.30;;;;;;;9.18;81.15;91005.06;4995884;28;20034;-86
2021/07/03 00:13:08;;;;;;;6.53;4.32;;;;;;;9.32;80.63;91005.59;4997124;28;20026;-86
2021/07/03 00:15:38;;;;;;;7.38;4.68;;;;;;;9.29;80.84;91008.81;4997518;28;20022;-86
2021/07/03 00:18:13;;;;;;;7.65;5.00;;;;;;;9.16;80.97;91002.03;4963894;28;20053;-85
2021/07/03 00:20:54;;;;;;;7.45;4.88;;;;;;;9.15;81.38;91008.31;4977850;28;20030;-86
2021/07/03 00:23:28;;;;;;;11.00;4.80;;;;;;;9.18;81.29;91013.63;4945281;28;20026;-86
2021/07/03 00:26:05;;;;;;;10.60;5.30;;;;;;;9.18;81.66;91012.88;4963194;28;20029;-85
2021/07/03 00:28:41;;;;;;;6.70;4.82;;;;;;;9.16;81.48;91012.44;4964780;28;20034;-85
2021/07/03 00:31:18;;;;;;;8.02;4.75;;;;;;;9.16;81.50;91009.84;4961019;28;20113;-87
2021/07/03 00:33:54;;;;;;;7.15;4.50;;;;;;;9.13;81.56;91002.66;4960489;28;20037;-87
2021/07/03 00:36:30;;;;;;;8.25;4.90;;;;;;;9.07;81.78;91004.69;4991956;28;20026;-86
2021/07/03 00:39:06;;;;;;;7.32;4.68;;;;;;;9.12;82.07;90998.53;4944338;28;20036;-86
2021/07/03 00:41:45;;;;;;;9.63;5.40;;;;;;;9.05;82.11;90999.81;4983389;28;20026;-86
2021/07/03 00:44:37;;;;;;;7.45;5.10;;;;;;;9.04;82.14;90994.91;4994887;28;20028;-86
2021/07/03 00:47:17;;;;;;;8.20;4.60;;;;;;;9.07;82.07;90994.28;5011117;28;20117;-87
2021/07/03 00:49:55;;;;;;;6.35;4.40;;;;;;;9.09;81.48;91003.31;5010943;28;20021;-88
2021/07/03 00:52:34;;;;;;;6.78;4.50;;;;;;;8.98;82.04;91001.41;5010895;28;20073;-87
2021/07/03 00:55:17;;;;;;;8.57;4.72;;;;;;;9.01;81.94;91003.34;5011057;28;20104;-86
2021/07/03 00:57:57;;;;;;;6.93;4.88;;;;;;;9.02;81.82;91003.03;4978140;28;20022;-87
2021/07/03 01:00:39;;;;;;;6.93;4.95;;;;;;;8.92;82.54;91005.25;4991236;28;20089;-86
2021/07/03 01:03:14;;;;;;;7.50;4.60;;;;;;;8.93;82.72;90996.38;4975351;28;20476;-86
2021/07/03 01:05:50;;;;;;;6.60;4.60;;;;;;;8.94;82.78;91010.88;4992523;28;20476;-85
2021/07/03 01:08:26;;;;;;;7.30;4.70;;;;;;;8.95;82.77;91005.38;4975586;28;20034;-86
2021/07/03 01:11:07;;;;;;;6.85;5.00;;;;;;;8.99;82.22;91011.47;4992195;28;20506;-86
2021/07/03 01:13:45;;;;;;;7.57;5.07;;;;;;;9.06;81.74;91022.13;4994842;28;20041;-86
2021/07/03 01:16:25;;;;;;;6.72;4.85;;;;;;;9.01;82.09;91011.13;4990865;28;20144;-86
2021/07/03 01:19:04;;;;;;;8.05;5.15;;;;;;;8.90;82.59;91021.13;5010848;28;20028;-85
2021/07/03 01:21:45;;;;;;;5.78;4.15;;;;;;;8.87;82.52;91016.59;4994510;28;20026;-86
2021/07/03 01:24:23;;;;;;;7.53;5.07;;;;;;;8.91;81.43;91014.88;4994258;28;20036;-86
2021/07/03 01:26:57;;;;;;;6.50;4.55;;;;;;;8.72;81.69;91004.13;4975724;28;20018;-87
2021/07/03 01:29:34;;;;;;;8.73;5.30;;;;;;;8.69;82.33;91007.34;4974514;28;20303;-86
2021/07/03 01:32:14;;;;;;;6.65;4.78;;;;;;;8.68;82.76;91011.03;4975366;28;20105;-87
2021/07/03 01:34:54;;;;;;;8.52;5.15;;;;;;;8.63;82.36;91003.41;4959654;28;20026;-85
2021/07/03 01:37:31;;;;;;;9.00;5.03;;;;;;;8.61;82.86;91001.88;4959567;28;20030;-86
2021/07/03 01:40:10;;;;;;;6.57;4.68;;;;;;;8.58;83.05;90997.31;4975669;28;20033;-86
2021/07/03 01:42:48;;;;;;;11.48;5.13;;;;;;;8.56;82.67;90996.88;4963099;28;20046;-87
2021/07/03 01:45:23;;;;;;;6.93;5.25;;;;;;;8.60;83.50;91002.97;4959442;28;20026;-86
2021/07/03 01:47:58;;;;;;;7.43;4.85;;;;;;;8.65;83.12;91001.25;4975626;28;20030;-86
2021/07/03 01:50:37;;;;;;;8.57;5.18;;;;;;;8.58;83.27;90991.34;4979504;28;20029;-86
2021/07/03 01:53:21;;;;;;;8.55;5.00;;;;;;;8.57;83.38;90985.41;4994990;28;20117;-84
2021/07/03 01:55:55;;;;;;;7.72;4.97;;;;;;;8.53;83.55;90989.69;4962399;28;20022;-85
2021/07/03 01:58:32;;;;;;;8.55;5.00;;;;;;;8.50;83.21;90973.97;4978669;28;20026;-86
2021/07/03 02:01:07;;;;;;;6.80;4.90;;;;;;;8.49;83.57;90964.66;4963138;28;20068;-85
2021/07/03 02:03:46;;;;;;;8.40;5.25;;;;;;;8.53;83.45;90968.16;4963315;28;20022;-86
2021/07/03 02:06:18;;;;;;;7.60;5.18;;;;;;;8.54;82.88;90967.06;4963146;28;20034;-86
2021/07/03 02:08:56;;;;;;;7.45;4.95;;;;;;;8.56;82.96;90973.50;4978454;28;20026;-86
2021/07/03 02:11:37;;;;;;;7.63;4.95;;;;;;;8.50;84.21;90971.38;4963345;28;20026;-86
2021/07/03 02:14:17;;;;;;;7.40;5.07;;;;;;;8.39;84.26;90968.38;4995441;28;20030;-86
2021/07/03 02:16:52;;;;;;;9.32;5.30;;;;;;;8.40;84.00;90969.88;4979484;28;20050;-86
2021/07/03 02:19:33;;;;;;;7.68;4.65;;;;;;;8.38;83.63;90977.25;4977810;28;20053;-86
2021/07/03 02:22:12;;;;;;;10.80;5.63;;;;;;;8.34;83.33;90986.72;4997354;28;20108;-87
2021/07/03 02:24:48;;;;;;;7.35;4.95;;;;;;;8.32;84.13;90984.41;5014006;28;20030;-84
2021/07/03 02:27:27;;;;;;;11.40;5.03;;;;;;;8.26;84.31;90975.25;5011890;28;20045;-85
2021/07/03 02:30:03;;;;;;;8.00;5.60;;;;;;;8.28;83.81;90977.56;4996699;28;20034;-86
2021/07/03 02:32:45;;;;;;;7.43;4.85;;;;;;;8.30;83.23;90970.22;4997354;28;20029;-86
2021/07/03 02:35:35;;;;;;;9.10;5.22;;;;;;;8.24;83.24;90979.25;5013177;28;20065;-86
2021/07/03 02:38:20;;;;;;;8.00;5.25;;;;;;;8.13;83.60;90977.00;5019098;23;20050;-83
2021/07/03 02:40:56;;;;;;;6.60;4.63;;;;;;;8.04;83.60;90980.69;4998550;28;20026;-83
2021/07/03 02:43:34;;;;;;;7.20;4.85;;;;;;;7.97;83.42;90981.16;4983604;28;20439;-83
2021/07/03 02:46:09;;;;;;;9.23;4.85;;;;;;;8.02;83.06;90986.22;4998366;28;20488;-84
2021/07/03 02:48:41;;;;;;;8.35;4.40;;;;;;;8.03;83.42;90986.97;4998969;28;20530;-84
2021/07/03 02:51:18;;;;;;;7.82;5.03;;;;;;;7.97;83.23;90970.78;4998339;28;20029;-84
2021/07/03 02:53:53;;;;;;;6.82;4.70;;;;;;;7.95;83.11;90967.75;4997779;28;20098;-83
2021/07/03 02:56:35;;;;;;;9.05;5.07;;;;;;;7.97;83.70;90978.56;4998821;28;20077;-83
2021/07/03 02:59:14;;;;;;;9.35;5.20;;;;;;;7.92;84.40;90965.78;4980709;28;20109;-84
2021/07/03 03:01:47;;;;;;;8.30;5.78;;;;;;;7.89;84.39;90971.59;4981245;28;20026;-83
2021/07/03 03:04:23;;;;;;;7.13;5.10;;;;;;;7.84;84.80;90967.31;5015530;28;20395;-83
2021/07/03 03:07:04;;;;;;;9.32;5.57;;;;;;;7.79;85.14;90964.13;4982071;28;20026;-84
2021/07/03 03:09:32;;;;;;;6.20;4.43;;;;;;;7.87;84.31;90958.91;4983051;28;20499;-83
2021/07/03 03:12:10;;;;;;;8.10;5.43;;;;;;;7.88;84.55;90959.69;4998255;28;20038;-84
2021/07/03 03:14:48;;;;;;;9.95;4.95;;;;;;;7.85;83.79;90966.25;4965928;28;20034;-83
2021/07/03 03:17:28;;;;;;;8.75;5.15;;;;;;;7.97;83.91;90968.19;4982509;28;20582;-83
2021/07/03 03:20:11;;;;;;;8.10;4.82;;;;;;;7.83;84.42;90970.22;4997557;28;20021;-84
2021/07/03 03:22:48;;;;;;;7.03;5.10;;;;;;;7.75;84.49;90955.44;4982540;28;20029;-83
2021/07/03 03:25:29;;;;;;;9.27;5.53;;;;;;;7.76;84.52;90957.72;4998314;28;20113;-83
2021/07/03 03:28:08;;;;;;;7.47;5.13;;;;;;;7.77;84.73;90961.81;4998887;28;20104;-83
2021/07/03 03:30:44;;;;;;;7.50;5.32;;;;;;;7.91;84.84;90969.41;4997565;28;20022;-84
2021/07/03 03:33:20;;;;;;;8.05;5.10;;;;;;;7.98;84.53;90972.31;5014933;28;20026;-83
2021/07/03 03:35:49;;;;;;;8.05;5.18;;;;;;;7.93;84.36;90971.72;4997485;28;20018;-83
2021/07/03 03:38:26;;;;;;;11.00;5.60;;;;;;;7.83;85.34;90970.22;4981561;28;20083;-84
2021/07/03 03:41:03;;;;;;;8.07;5.45;;;;;;;7.88;85.48;90964.88;4982029;28;20080;-84
2021/07/03 03:43:45;;;;;;;8.32;5.50;;;;;;;7.93;85.40;90964.69;4997080;28;20034;-83
2021/07/03 03:46:23;;;;;;;8.70;5.50;;;;;;;7.95;85.50;90956.59;4998802;28;20025;-84
2021/07/03 03:49:02;;;;;;;7.43;4.68;;;;;;;7.92;84.56;90957.22;4997228;28;20052;-83
2021/07/03 03:51:39;;;;;;;8.80;5.45;;;;;;;7.92;85.13;90950.22;4982295;28;20057;-83
2021/07/03 03:54:15;;;;;;;8.32;5.47;;;;;;;7.98;85.00;90943.75;4982377;28;20076;-83
2021/07/03 03:59:48;;;;;;;6.85;5.40;;;;;;;8.04;85.18;90937.31;5000604;28;20028;-83
2021/07/03 04:02:22;;;;;;;8.48;6.10;;;;;;;8.15;85.18;90943.69;4965060;28;20400;-85
2021/07/03 04:05:01;;;;;;;8.10;5.55;;;;;;;8.26;85.06;90936.31;4965505;28;20068;-84
2021/07/03 04:07:35;;;;;;;6.97;5.28;;;;;;;8.47;84.23;90948.63;4997163;28;20509;-83
2021/07/03 04:10:18;;;;;;;9.55;5.90;;;;;;;8.47;84.31;90948.63;4997222;28;20026;-83
2021/07/03 04:12:45;;;;;;;10.10;5.90;;;;;;;8.44;84.50;90950.00;5013190;28;20062;-84
2021/07/03 04:15:25;;;;;;;9.50;5.90;;;;;;;8.46;84.50;90947.88;4980194;28;20018;-83
2021/07/03 04:18:06;;;;;;;9.05;6.03;;;;;;;8.54;84.70;90954.09;4996139;28;20048;-83
2021/07/03 04:20:44;;;;;;;9.80;5.70;;;;;;;8.69;84.42;90955.38;4981600;28;20022;-83
2021/07/03 04:23:19;;;;;;;8.73;5.63;;;;;;;8.73;84.39;90949.25;4997317;28;20022;-83
2021/07/03 04:26:01;;;;;;;8.98;5.55;;;;;;;8.75;84.78;90952.28;4987467;28;20037;-84
2021/07/03 04:28:38;;;;;;;8.00;5.95;;;;;;;8.86;85.15;90965.66;5013240;28;20514;-84
2021/07/03 04:31:18;;;;;;;9.10;5.82;;;;;;;9.00;84.37;90953.19;5009265;28;20450;-81
2021/07/03 04:33:58;;;;;;;7.70;5.63;;;;;;;9.14;83.73;90959.97;4980885;28;20030;-84
2021/07/03 04:36:40;;;;;;;8.57;5.47;;;;;;;9.21;83.67;90947.25;4997562;28;20025;-83
2021/07/03 04:39:18;;;;;;;9.50;5.70;;;;;;;9.27;83.90;90946.72;4979850;28;20037;-83
2021/07/03 04:41:56;;;;;;;7.00;4.75;;;;;;;9.39;83.26;90946.00;4981246;28;20028;-84
2021/07/03 04:44:43;;;;;;;8.93;5.80;;;;;;;9.35;83.27;90955.53;4981139;28;20026;-83
2021/07/03 04:47:25;;;;;;;9.60;5.40;;;;;;;9.43;83.39;90959.13;4998356;28;20029;-83
2021/07/03 04:50:06;;;;;;;8.35;5.38;;;;;;;9.61;83.04;90957.16;4996753;28;20032;-84
2021/07/03 04:52:46;;;;;;;9.05;5.65;;;;;;;9.62;82.84;90964.66;4980760;28;20018;-83
2021/07/03 04:55:23;;;;;;;8.45;5.78;;;;;;;9.62;83.13;90958.69;4975946;28;20026;-83
2021/07/03 04:57:51;;;;;;;8.93;5.68;;;;;;;9.73;83.17;90957.97;4960921;28;20026;-84
2021/07/03 05:00:25;;;;;;;10.27;5.45;;;;;;;9.84;82.66;90955.72;4960267;28;20026;-83
2021/07/03 05:02:59;;;;;;;9.20;5.35;;;;;;;9.94;82.79;90964.97;4977207;28;20026;-83
2021/07/03 05:05:39;;;;;;;11.65;5.38;;;;;;;10.04;81.96;90969.75;4959739;28;20034;-84
2021/07/03 05:08:21;;;;;;;8.05;5.70;;;;;;;10.05;82.10;90964.22;4964431;28;20033;-83
2021/07/03 05:10:59;;;;;;;10.27;5.93;;;;;;;10.12;82.08;90955.13;4979763;28;20112;-83
2021/07/03 05:13:39;;;;;;;8.73;5.30;;;;;;;10.18;82.10;90959.03;4980505;28;20046;-84
2021/07/03 05:16:11;;;;;;;9.07;5.28;;;;;;;10.29;81.90;90942.69;4980402;28;20030;-84
2021/07/03 05:18:49;;;;;;;8.13;5.53;;;;;;;10.41;81.37;90946.38;4995495;28;20080;-84
2021/07/03 05:21:17;;;;;;;8.07;4.97;;;;;;;10.45;81.58;90947.25;4963077;28;20376;-84
2021/07/03 05:24:00;;;;;;;7.90;5.88;;;;;;;10.47;81.95;90939.88;4993334;28;20026;-83
2021/07/03 05:26:41;;;;;;;7.88;5.45;;;;;;;10.53;81.79;90941.94;4990685;28;20121;-85
2021/07/03 05:29:16;;;;;;;8.15;5.03;;;;;;;10.65;80.76;90935.19;4992967;28;20503;-83
2021/07/03 05:31:55;;;;;;;7.43;5.22;;;;;;;10.63;81.13;90947.78;4960712;28;20029;-84
2021/07/03 05:34:36;;;;;;;7.55;5.50;;;;;;;10.59;81.60;90944.31;4976066;28;20042;-84
2021/07/03 05:37:08;;;;;;;9.38;5.85;;;;;;;10.60;81.62;90938.78;4960243;28;20552;-84
2021/07/03 05:39:51;;;;;;;9.52;5.60;;;;;;;10.65;81.55;90945.63;4979414;28;20096;-84
2021/07/03 05:42:31;;;;;;;8.45;5.15;;;;;;;10.68;82.04;90942.38;4979588;28;20084;-84
2021/07/03 05:45:08;;;;;;;7.10;5.13;;;;;;;10.75;81.33;90948.53;5014035;28;20059;-84
2021/07/03 05:47:50;;;;;;;8.23;5.35;;;;;;;10.85;80.86;90939.53;4982839;28;20400;-84
2021/07/03 05:50:26;;;;;;;10.27;6.00;;;;;;;10.97;81.02;90926.47;4982819;28;20030;-85
2021/07/03 05:53:03;;;;;;;9.95;6.30;;;;;;;11.12;82.33;90917.19;4997920;28;20029;-86
2021/07/03 05:55:39;;;;;;;8.43;5.85;;;;;;;11.14;82.86;90915.00;4981753;28;20057;-85
2021/07/03 05:58:15;;;;;;;9.38;5.90;;;;;;;11.27;81.22;90913.09;4998284;28;20053;-82
2021/07/03 06:00:58;;;;;;;8.23;5.68;;;;;;;11.41;82.05;90918.75;4977750;28;20050;-84
2021/07/03 06:03:37;;;;;;;8.60;5.50;;;;;;;11.61;80.89;90916.25;4994420;28;20045;-84
2021/07/03 06:06:12;;;;;;;8.20;5.75;;;;;;;11.75;80.76;90918.47;4994248;28;20026;-83
2021/07/03 06:08:50;;;;;;;8.70;6.18;;;;;;;11.88;81.84;90928.56;4977270;28;20053;-81
2021/07/03 06:11:28;;;;;;;9.05;5.90;;;;;;;12.00;82.09;90921.72;4993145;28;20614;-85
2021/07/03 06:14:01;;;;;;;11.15;5.90;;;;;;;12.06;81.19;90915.19;4976020;28;20025;-85
2021/07/03 06:16:46;;;;;;;9.70;5.70;;;;;;;12.20;81.14;90928.56;4992646;28;20022;-83
2021/07/03 06:19:21;;;;;;;6.53;5.50;;;;;;;12.36;80.36;90913.63;4991616;28;20026;-83
2021/07/03 06:21:46;;;;;;;7.82;5.22;;;;;;;12.52;79.91;90920.72;4987335;28;20129;-84
2021/07/03 06:24:13;;;;;;;7.45;5.20;;;;;;;12.69;80.18;90930.84;4978511;28;20026;-84
2021/07/03 06:26:39;;;;;;;7.47;5.40;;;;;;;12.86;77.47;90930.47;4995111;28;20507;-83
2021/07/03 06:29:16;;;;;;;8.40;5.75;;;;;;;13.01;75.68;90926.28;5015210;28;20026;-86
2021/07/03 06:31:51;;;;;;;7.57;5.80;;;;;;;13.19;75.74;90921.44;4986778;28;20049;-85
2021/07/03 06:34:26;;;;;;;;;;;;;;;13.30;73.65;90911.97;4985313;28;20117;-85
2021/07/03 06:37:01;;;;;;;;;;;;;;;13.50;74.71;90925.81;5035950;28;20001;-85
2021/07/03 06:39:42;;;;;;;7.82;5.35;;;;;;;13.62;74.10;90919.66;5036137;28;20367;-85
2021/07/03 06:42:08;;;;;;;7.15;5.15;;;;;;;13.77;72.27;90918.81;5005069;28;20026;-82
2021/07/03 06:44:37;;;;;;;8.98;5.38;;;;;;;13.94;72.09;90916.88;5003379;28;20033;-84
2021/07/03 06:47:06;;;;;;;7.85;5.22;;;;;;;14.03;72.90;90912.94;4985917;28;20032;-84
2021/07/03 06:49:33;;;;;;;11.40;5.47;;;;;;;14.18;70.26;90918.41;5001611;28;20064;-84
2021/07/03 06:52:10;;;;;;;7.95;5.13;;;;;;;14.35;71.11;90918.69;5002303;28;20533;-84
2021/07/03 06:54:53;;;;;;;9.13;4.95;;;;;;;14.52;70.26;90924.59;5003082;28;20026;-86
2021/07/03 06:57:37;;;;;;;6.65;4.80;;;;;;;14.73;65.40;90919.66;5004534;28;20030;-84
2021/07/03 07:00:12;;;;;;;7.13;4.60;;;;;;;14.77;66.16;90920.50;4987732;28;20055;-84
2021/07/03 07:02:49;;;;;;;7.55;5.10;;;;;;;14.88;68.55;90917.28;4986912;28;20018;-83
2021/07/03 07:05:24;;;;;;;6.47;4.68;;;;;;;14.91;66.13;90913.91;4988028;28;20472;-85
2021/07/03 07:08:04;;;;;;;6.30;4.80;;;;;;;15.06;67.01;90915.66;4987080;28;20787;-85
2021/07/03 07:10:36;;;;;;;8.57;5.38;;;;;;;14.94;65.48;90905.34;4986546;28;20037;-87
2021/07/03 07:13:08;;;;;;;9.20;5.10;;;;;;;15.04;67.43;90907.34;4987167;28;20033;-85
2021/07/03 07:15:35;;;;;;;6.78;4.90;;;;;;;15.06;66.49;90905.91;5018930;28;20064;-84
2021/07/03 07:18:18;;;;;;;8.93;5.05;;;;;;;15.06;65.78;90913.03;5000153;28;20392;-84
2021/07/03 07:21:02;;;;;;;6.57;4.80;;;;;;;15.22;65.97;90903.09;5000173;28;20026;-84
2021/07/03 07:23:39;;;;;;;6.68;4.72;;;;;;;15.30;64.02;90907.34;4999451;28;20031;-85
2021/07/03 07:26:20;;;;;;;5.75;4.28;;;;;;;15.41;63.69;90899.59;4985781;28;20500;-85
2021/07/03 07:29:04;;;;;;;7.13;4.70;;;;;;;15.63;61.54;90891.94;5002703;28;20048;-86
2021/07/03 07:31:47;;;;;;;7.00;4.38;;;;;;;15.70;61.27;90881.53;4985254;28;20101;-85
2021/07/03 07:34:29;;;;;;;5.97;4.38;;;;;;;15.90;62.77;90885.50;5018977;28;20041;-84
2021/07/03 07:37:09;;;;;;;7.55;4.75;;;;;;;16.00;62.82;90876.94;4984627;28;20104;-85
2021/07/03 07:39:47;;;;;;;6.75;4.70;;;;;;;16.11;61.91;90877.03;5001669;28;20030;-84
2021/07/03 07:42:27;;;;;;;6.25;4.38;;;;;;;16.12;65.93;90867.31;4986639;28;20053;-85
2021/07/03 07:45:03;;;;;;;7.35;4.60;;;;;;;16.35;61.45;90880.25;5002249;28;20108;-86
2021/07/03 07:47:41;;;;;;;10.60;4.70;;;;;;;16.37;62.41;90883.28;4986737;28;20026;-86
2021/07/03 07:50:17;;;;;;;7.75;5.30;;;;;;;16.46;61.75;90881.09;5020230;28;20021;-83
2021/07/03 07:52:53;;;;;;;8.73;4.55;;;;;;;16.59;64.49;90874.44;4986820;28;20084;-86
2021/07/03 07:55:23;;;;;;;6.10;4.70;;;;;;;16.68;63.37;90874.13;4986409;28;20034;-86
2021/07/03 07:58:03;;;;;;;6.57;4.65;;;;;;;16.87;62.22;90879.16;5020172;28;20381;-84
2021/07/03 08:00:41;;;;;;;5.90;4.22;;;;;;;16.89;60.18;90886.69;5018911;28;20029;-86
2021/07/03 08:03:11;;;;;;;5.90;4.38;;;;;;;16.93;57.69;90892.75;5019580;28;20112;-84
2021/07/03 08:05:50;;;;;;;5.97;4.00;;;;;;;16.98;55.77;90889.00;4985399;28;20026;-85
2021/07/03 08:08:20;;;;;;;6.80;4.40;;;;;;;17.06;57.47;90891.28;4986894;28;20487;-85
2021/07/03 08:10:53;;;;;;;6.32;3.78;;;;;;;17.24;55.73;90895.91;5001701;28;20088;-85
2021/07/03 08:13:31;;;;;;;5.95;3.92;;;;;;;17.35;59.57;90886.16;5018881;28;20060;-84
2021/07/03 08:16:04;;;;;;;7.35;4.15;;;;;;;17.48;54.27;90884.72;5002369;28;20064;-85
2021/07/03 08:18:45;;;;;;;6.95;3.72;;;;;;;17.67;52.44;90881.81;4984672;28;20676;-85
2021/07/03 08:21:17;;;;;;;6.55;3.90;;;;;;;17.85;56.74;90873.97;5018616;28;20060;-85
2021/07/03 08:23:51;;;;;;;6.85;4.03;;;;;;;17.84;51.19;90874.31;5018645;28;20503;-85
2021/07/03 08:26:29;;;;;;;6.22;4.60;;;;;;;17.94;51.48;90878.88;4980995;28;20026;-85
2021/07/03 08:29:05;;;;;;;4.68;3.70;;;;;;;17.86;52.31;90866.81;4981607;28;20142;-84
2021/07/03 08:31:36;;;;;;;4.40;3.90;;;;;;;17.87;52.42;90866.44;4988273;28;20025;-86
2021/07/03 08:34:14;;;;;;;4.13;3.67;;;;;;;18.17;55.92;90869.88;4985326;28;20391;-85
2021/07/03 08:39:23;;;;;;;4.88;3.60;;;;;;;18.60;53.31;90857.47;5022820;28;19921;-83
2021/07/03 08:42:01;;;;;;;7.47;4.20;;;;;;;18.58;54.93;90863.09;4999698;28;20041;-84
2021/07/03 08:44:37;;;;;;;5.07;3.78;;;;;;;18.62;50.76;90863.09;5016115;28;20029;-84
2021/07/03 08:47:11;;;;;;;4.90;3.50;;;;;;;18.66;49.63;90868.38;5000737;28;20029;-85
2021/07/03 08:50:01;;;;;;;3.50;3.20;;;;;;;18.61;48.63;90859.72;5031599;28;20021;-86
2021/07/03 08:52:27;;;;;;;5.32;3.55;;;;;;;18.86;52.17;90861.59;5015571;28;20487;-85
2021/07/03 08:55:25;;;;;;;5.00;3.55;;;;;;;19.19;50.26;90867.59;5027995;28;20029;-84
2021/07/03 08:58:03;;;;;;;4.80;3.17;;;;;;;19.13;47.91;90858.53;5010639;28;20025;-85
2021/07/03 09:00:45;;;;;;;5.38;3.53;;;;;;;18.85;46.46;90855.56;5011564;28;20030;-85
2021/07/03 09:03:31;;;;;;;4.25;3.03;;;;;;;19.11;51.81;90861.53;5012890;28;20021;-85
2021/07/03 09:06:15;;;;;;;4.57;3.53;;;;;;;19.29;51.27;90861.50;5012842;28;20018;-85
2021/07/03 09:09:01;;;;;;;4.40;3.33;;;;;;;19.49;50.79;90857.28;5011691;28;20029;-85
2021/07/03 09:11:37;;;;;;;5.78;3.70;;;;;;;19.63;52.16;90853.84;5011895;28;20026;-86
2021/07/03 09:14:12;;;;;;;4.60;3.35;;;;;;;19.46;45.69;90847.47;4992236;28;20022;-84
2021/07/03 09:16:38;;;;;;;5.93;3.88;;;;;;;19.49;50.56;90841.41;4992074;28;20027;-86
2021/07/03 09:19:08;;;;;;;4.50;3.67;;;;;;;19.85;51.63;90846.56;4995191;28;20152;-83
2021/07/03 09:21:34;;;;;;;6.53;3.70;;;;;;;20.00;50.13;90844.59;5011558;28;20052;-84
2021/07/03 09:24:12;;;;;;;5.60;3.60;;;;;;;20.13;52.61;90842.25;4995340;28;20064;-86
2021/07/03 09:26:46;;;;;;;4.88;3.53;;;;;;;19.98;47.14;90841.59;4996752;28;20018;-85
2021/07/03 09:29:20;;;;;;;;;;;;;;;20.18;48.63;90839.22;5011435;28;20088;-85
2021/07/03 09:31:48;;;;;;;4.47;3.40;;;;;;;20.23;50.42;90830.84;5011442;28;20369;-84
2021/07/03 09:34:20;;;;;;;4.82;3.25;;;;;;;20.31;46.51;90837.59;5012479;28;20021;-84
2021/07/03 09:36:53;;;;;;;3.65;3.10;;;;;;;20.13;44.06;90826.38;5011217;28;20018;-86
2021/07/03 09:39:30;;;;;;;5.18;3.65;;;;;;;20.18;45.23;90839.22;5010985;28;20026;-84
2021/07/03 09:42:08;;;;;;;5.68;4.30;;;;;;;20.25;47.42;90841.81;5010824;28;20029;-84
2021/07/03 09:44:48;;;;;;;4.55;3.83;;;;;;;20.43;45.25;90847.72;5011296;28;20038;-84
2021/07/03 09:47:27;;;;;;;5.07;3.72;;;;;;;20.69;49.05;90846.38;5014762;28;20034;-84
2021/07/03 09:50:11;;;;;;;6.00;3.92;;;;;;;20.56;48.15;90839.31;5011110;28;20226;-84
2021/07/03 09:52:43;;;;;;;;;;;;;;;20.36;46.06;90842.47;5011717;28;20030;-84
2021/07/03 09:55:18;;;;;;;4.13;3.53;;;;;;;20.52;49.76;90848.03;5011523;28;19913;-83
2021/07/03 09:57:50;;;;;;;4.57;3.90;;;;;;;20.44;49.97;90843.91;5011690;28;20028;-85
2021/07/03 10:00:19;;;;;;;6.00;3.80;;;;;;;20.66;47.46;90846.41;5010919;28;20026;-86
2021/07/03 10:02:45;;;;;;;4.90;3.83;;;;;;;20.82;46.52;90849.31;5010453;28;20504;-84
2021/07/03 10:05:12;;;;;;;5.93;3.90;;;;;;;20.90;45.49;90840.16;5011736;28;20084;-85
2021/07/03 10:07:48;;;;;;;4.40;3.63;;;;;;;20.85;48.35;90847.75;5011032;28;20017;-88
2021/07/03 10:10:27;;;;;;;4.75;4.03;;;;;;;20.73;45.72;90843.72;5013736;28;20030;-87
2021/07/03 10:13:09;;;;;;;6.60;4.38;;;;;;;20.64;46.88;90838.13;5015536;28;20030;-84
2021/07/03 10:15:41;;;;;;;5.28;3.88;;;;;;;20.63;48.35;90841.91;4998975;28;20075;-84
2021/07/03 10:18:30;;;;;;;4.82;3.40;;;;;;;20.64;43.72;90832.84;4995291;28;20026;-85
2021/07/03 10:21:17;;;;;;;4.80;3.88;;;;;;;20.52;48.55;90826.09;4996332;28;20105;-86
2021/07/03 10:23:55;;;;;;;6.72;4.30;;;;;;;20.43;48.85;90828.44;4968129;28;20036;-84
2021/07/03 10:26:21;;;;;;;4.93;4.10;;;;;;;20.45;48.48;90824.25;5026236;28;20507;-85
2021/07/03 10:28:57;;;;;;;5.65;4.40;;;;;;;20.18;47.92;90818.03;5033869;28;20475;-85
2021/07/03 10:31:36;;;;;;;7.05;4.22;;;;;;;19.99;47.82;90822.69;5008440;28;20091;-87
2021/07/03 10:34:13;;;;;;;5.32;4.30;;;;;;;20.20;48.36;90815.75;5019507;28;20030;-85
2021/07/03 10:36:58;;;;;;;5.82;3.95;;;;;;;20.20;48.69;90826.31;5016796;28;20042;-84
2021/07/03 10:39:33;;;;;;;6.15;4.10;;;;;;;20.14;48.07;90819.94;5013700;28;20030;-84
2021/07/03 10:42:02;;;;;;;5.75;4.10;;;;;;;20.25;48.56;90824.03;5013960;28;20492;-89
2021/07/03 10:44:44;;;;;;;5.70;4.40;;;;;;;20.28;49.16;90822.47;5013421;28;20029;-86
2021/07/03 10:47:20;;;;;;;5.75;4.13;;;;;;;20.40;50.03;90822.03;5013975;28;20105;-84
2021/07/03 10:49:54;;;;;;;5.85;4.13;;;;;;;20.43;48.09;90815.97;4998095;28;20407;-84
2021/07/03 10:52:43;;;;;;;7.78;4.22;;;;;;;20.75;48.06;90812.31;4999495;28;20017;-84
2021/07/03 10:55:25;;;;;;;7.25;4.40;;;;;;;20.88;48.72;90810.66;4998131;28;20022;-83
2021/07/03 10:57:51;;;;;;;5.57;4.18;;;;;;;20.94;48.01;90814.38;5008846;28;20560;-84
2021/07/03 11:00:21;;;;;;;5.78;3.95;;;;;;;20.95;47.86;90813.25;4998983;28;20025;-84
2021/07/03 11:02:47;;;;;;;7.22;4.00;;;;;;;21.16;48.53;90811.50;5016184;28;20030;-85
2021/07/03 11:05:14;;;;;;;5.25;3.95;;;;;;;20.89;44.91;90806.88;5014820;28;20029;-84
2021/07/03 11:07:43;;;;;;;4.88;3.70;;;;;;;21.00;45.76;90807.50;5014659;28;20026;-84
2021/07/03 11:10:14;;;;;;;5.65;3.78;;;;;;;21.01;47.70;90802.97;5013965;28;20033;-83
2021/07/03 11:12:49;;;;;;;4.72;3.95;;;;;;;21.14;50.46;90803.22;5014748;28;20012;-85
2021/07/03 11:15:34;;;;;;;5.30;4.05;;;;;;;21.27;48.42;90806.84;5039883;28;20085;-84
2021/07/03 11:18:16;;;;;;;4.90;3.72;;;;;;;21.26;48.56;90802.69;5019942;28;20030;-84
2021/07/03 11:20:57;;;;;;;4.32;3.50;;;;;;;21.37;48.00;90802.59;5014498;28;20030;-84
2021/07/03 11:23:40;;;;;;;5.05;3.80;;;;;;;21.16;47.06;90801.66;5014098;28;20034;-84
2021/07/03 11:26:23;;;;;;;4.75;3.58;;;;;;;21.41;48.01;90798.78;5026891;28;20098;-84
2021/07/03 11:29:01;;;;;;;4.97;3.80;;;;;;;21.48;45.99;90790.72;5033851;28;20037;-84
2021/07/03 11:31:38;;;;;;;5.80;4.13;;;;;;;21.65;46.82;90802.22;5014569;28;20018;-84
2021/07/03 11:34:25;;;;;;;5.75;4.45;;;;;;;22.03;46.69;90788.09;5013712;28;20056;-84
2021/07/03 11:37:05;;;;;;;7.03;4.10;;;;;;;22.24;47.50;90797.69;5013317;28;20049;-84
2021/07/03 11:39:38;;;;;;;4.20;3.60;;;;;;;22.16;44.91;90789.81;5014558;28;20053;-84
2021/07/03 11:42:26;;;;;;;5.15;4.20;;;;;;;22.35;47.57;90785.75;5013473;28;20057;-84
2021/07/03 11:45:08;;;;;;;5.40;3.75;;;;;;;22.29;44.78;90794.56;5013522;28;20044;-85
2021/07/03 11:47:51;;;;;;;4.65;3.85;;;;;;;22.25;43.51;90789.31;5013396;28;20028;-84
2021/07/03 11:50:33;;;;;;;6.80;3.90;;;;;;;22.05;40.85;90788.44;5014281;28;20057;-84
2021/07/03 11:53:09;;;;;;;4.88;3.80;;;;;;;22.24;41.42;90790.47;5012995;28;20061;-84
2021/07/03 11:55:48;;;;;;;5.95;4.00;;;;;;;22.07;42.20;90788.78;5013220;28;20105;-84
2021/07/03 11:58:35;;;;;;;4.70;3.75;;;;;;;22.03;44.44;90788.09;5014526;28;20032;-85
2021/07/03 12:01:14;;;;;;;4.65;3.80;;;;;;;22.30;41.22;90780.91;5012468;28;20507;-84
2021/07/03 12:03:54;;;;;;;4.30;3.70;;;;;;;22.33;41.35;90779.31;5012706;28;20029;-83
2021/07/03 12:06:34;;;;;;;4.25;3.55;;;;;;;22.34;44.45;90778.94;5012933;28;20022;-85
2021/07/03 12:09:24;;;;;;;6.05;3.95;;;;;;;22.41;45.96;90772.75;5014003;28;20022;-86
2021/07/03 12:12:00;;;;;;;5.20;3.63;;;;;;;22.36;44.09;90779.25;5012813;28;20022;-84
2021/07/03 12:14:37;;;;;;;4.55;3.53;;;;;;;22.26;42.19;90774.91;5012490;28;20021;-85
2021/07/03 12:17:16;;;;;;;6.38;3.90;;;;;;;21.85;41.98;90773.19;5012537;28;20029;-84
2021/07/03 12:19:48;;;;;;;6.78;4.30;;;;;;;22.05;46.56;90769.88;5011770;28;20607;-84
2021/07/03 12:22:27;;;;;;;5.53;3.97;;;;;;;22.04;43.03;90773.69;5012335;28;20515;-84
2021/07/03 12:25:16;;;;;;;4.68;3.92;;;;;;;22.16;45.25;90770.50;5015880;28;20498;-85
2021/07/03 12:28:01;;;;;;;4.50;4.00;;;;;;;22.10;47.09;90767.53;5032220;28;20029;-84
2021/07/03 12:30:39;;;;;;;5.60;3.58;;;;;;;21.94;45.20;90773.44;5014339;28;20034;-84